createdAt,value
2019-03-20T00:00:52.426Z,5.67
2019-03-20T00:01:52.410Z,5.66
2019-03-20T00:02:52.401Z,5.74
2019-03-20T00:03:52.402Z,5.66
2019-03-20T00:04:52.379Z,5.63
2019-03-20T00:05:52.367Z,5.66
2019-03-20T00:06:52.359Z,5.60
2019-03-20T00:07:52.349Z,5.65
2019-03-20T00:08:52.346Z,5.62
2019-03-20T00:09:52.326Z,5.62
2019-03-20T00:10:52.331Z,5.63
2019-03-20T00:11:52.305Z,5.62
2019-03-20T00:12:52.295Z,5.58
2019-03-20T00:13:52.293Z,5.59
2019-03-20T00:14:52.274Z,5.62
2019-03-20T00:15:52.264Z,5.65
2019-03-20T00:16:52.251Z,5.63
2019-03-20T00:17:52.241Z,5.63
2019-03-20T00:18:52.237Z,5.63
2019-03-20T00:19:52.225Z,5.55
2019-03-20T00:20:52.210Z,5.59
2019-03-20T00:21:52.199Z,5.52
2019-03-20T00:22:52.191Z,5.56
2019-03-20T00:23:52.186Z,5.49
2019-03-20T00:24:52.170Z,5.52
2019-03-20T00:25:52.153Z,5.55
2019-03-20T00:26:52.148Z,5.48
2019-03-20T00:27:52.133Z,5.49
2019-03-20T00:28:52.137Z,5.55
2019-03-20T00:29:52.113Z,5.55
2019-03-20T00:30:52.101Z,5.42
2019-03-20T00:31:52.093Z,5.52
2019-03-20T00:32:52.080Z,5.42
2019-03-20T00:33:52.078Z,5.49
2019-03-20T00:35:00.537Z,5.49
2019-03-20T00:35:53.049Z,5.40
2019-03-20T00:36:52.037Z,5.45
2019-03-20T00:37:52.026Z,5.45
2019-03-20T00:38:52.028Z,5.40
2019-03-20T00:39:52.017Z,5.42
2019-03-20T00:40:51.994Z,5.49
2019-03-20T00:41:51.984Z,5.42
2019-03-20T00:42:51.972Z,5.42
2019-03-20T00:43:51.972Z,5.47
2019-03-20T00:44:51.951Z,5.47
2019-03-20T00:45:51.947Z,5.41
2019-03-20T00:46:51.931Z,5.44
2019-03-20T00:47:51.923Z,5.40
2019-03-20T00:48:51.917Z,5.41
2019-03-20T00:49:51.898Z,5.44
2019-03-20T00:50:51.890Z,5.41
2019-03-20T00:51:51.877Z,5.41
2019-03-20T00:52:51.870Z,5.33
2019-03-20T00:53:51.867Z,5.41
2019-03-20T00:54:51.850Z,5.40
2019-03-20T00:55:51.838Z,5.40
2019-03-20T00:56:51.824Z,5.37
2019-03-20T00:57:51.814Z,5.37
2019-03-20T00:58:51.826Z,5.33
2019-03-20T00:59:51.798Z,5.30
2019-03-20T01:00:51.782Z,5.27
2019-03-20T01:01:51.780Z,5.30
2019-03-20T01:02:51.769Z,5.30
2019-03-20T01:03:51.759Z,5.33
2019-03-20T01:04:51.738Z,5.33
2019-03-20T01:05:51.732Z,5.32
2019-03-20T01:06:51.723Z,5.38
2019-03-20T01:07:51.712Z,5.32
2019-03-20T01:08:51.705Z,5.29
2019-03-20T01:09:51.687Z,5.35
2019-03-20T01:10:51.684Z,5.29
2019-03-20T01:11:51.665Z,5.32
2019-03-20T01:12:51.662Z,5.29
2019-03-20T01:13:51.680Z,5.33
2019-03-20T01:14:51.636Z,5.29
2019-03-20T01:15:51.626Z,5.37
2019-03-20T01:16:51.639Z,5.27
2019-03-20T01:17:51.602Z,5.33
2019-03-20T01:18:51.591Z,5.35
2019-03-20T01:19:51.589Z,5.22
2019-03-20T01:20:51.570Z,5.29
2019-03-20T01:21:51.559Z,5.26
2019-03-20T01:22:51.551Z,5.27
2019-03-20T01:23:51.535Z,5.26
2019-03-20T01:24:51.540Z,5.20
2019-03-20T01:25:51.518Z,5.19
2019-03-20T01:26:51.506Z,5.26
2019-03-20T01:27:51.518Z,5.14
2019-03-20T01:28:51.484Z,5.17
2019-03-20T01:29:51.484Z,5.14
2019-03-20T01:30:51.461Z,5.20
2019-03-20T01:31:51.450Z,5.19
2019-03-20T01:32:51.442Z,5.17
2019-03-20T01:33:51.435Z,5.14
2019-03-20T01:34:51.436Z,5.12
2019-03-20T01:35:51.410Z,4.97
2019-03-20T01:36:51.406Z,5.02
2019-03-20T01:37:51.404Z,4.99
2019-03-20T01:38:51.376Z,4.97
2019-03-20T01:39:51.377Z,4.94
2019-03-20T01:40:51.356Z,4.90
2019-03-20T01:41:51.344Z,4.84
2019-03-20T01:42:51.333Z,4.90
2019-03-20T01:43:51.322Z,4.87
2019-03-20T01:44:51.322Z,4.88
2019-03-20T01:45:51.315Z,4.79
2019-03-20T01:46:51.296Z,4.80
2019-03-20T01:47:51.279Z,4.80
2019-03-20T01:48:51.272Z,4.71
2019-03-20T01:49:51.267Z,4.64
2019-03-20T01:50:51.246Z,4.59
2019-03-20T01:51:51.240Z,4.61
2019-03-20T01:52:51.225Z,4.62
2019-03-20T01:53:51.219Z,4.56
2019-03-20T01:54:51.223Z,4.64
2019-03-20T01:55:51.200Z,4.54
2019-03-20T01:56:51.182Z,4.61
2019-03-20T01:57:51.175Z,4.67
2019-03-20T01:58:51.165Z,4.56
2019-03-20T01:59:51.165Z,4.57
2019-03-20T02:00:51.141Z,4.61
2019-03-20T02:01:51.130Z,4.57
2019-03-20T02:02:51.120Z,4.59
2019-03-20T02:03:51.113Z,4.56
2019-03-20T02:04:51.112Z,4.57
2019-03-20T02:05:51.089Z,4.56
2019-03-20T02:06:51.078Z,4.53
2019-03-20T02:07:51.070Z,4.56
2019-03-20T02:08:51.059Z,4.59
2019-03-20T02:09:51.053Z,4.62
2019-03-20T02:10:51.036Z,4.62
2019-03-20T02:11:51.030Z,4.53
2019-03-20T02:12:51.016Z,4.64
2019-03-20T02:13:51.004Z,4.62
2019-03-20T02:14:51.003Z,4.59
2019-03-20T02:15:50.980Z,4.61
2019-03-20T02:16:50.969Z,4.62
2019-03-20T02:17:50.962Z,4.59
2019-03-20T02:19:02.115Z,4.64
2019-03-20T02:19:50.950Z,4.59
2019-03-20T02:20:50.927Z,4.61
2019-03-20T02:21:50.916Z,4.62
2019-03-20T02:22:50.912Z,4.64
2019-03-20T02:23:50.897Z,4.49
2019-03-20T02:24:50.896Z,4.62
2019-03-20T02:25:50.874Z,4.43
2019-03-20T02:26:50.864Z,4.56
2019-03-20T02:27:50.853Z,4.42
2019-03-20T02:28:50.845Z,4.43
2019-03-20T02:31:35.848Z,4.47
2019-03-20T02:31:59.588Z,4.46
2019-03-20T02:32:59.578Z,4.57
2019-03-20T02:33:59.568Z,4.43
2019-03-20T02:34:59.571Z,4.46
2019-03-20T02:35:59.553Z,4.43
2019-03-20T02:36:59.538Z,4.46
2019-03-20T02:37:59.523Z,4.47
2019-03-20T02:38:59.511Z,4.42
2019-03-20T02:39:59.514Z,4.47
2019-03-20T02:40:59.496Z,4.50
2019-03-20T02:41:59.483Z,4.51
2019-03-20T02:42:59.473Z,4.50
2019-03-20T02:43:59.462Z,4.44
2019-03-20T02:44:59.461Z,4.44
2019-03-20T02:45:59.436Z,4.43
2019-03-20T02:46:59.430Z,4.49
2019-03-20T02:47:59.421Z,4.46
2019-03-20T02:48:59.427Z,4.56
2019-03-20T02:49:59.397Z,4.47
2019-03-20T02:50:59.394Z,4.43
2019-03-20T02:51:59.377Z,4.49
2019-03-20T02:52:59.364Z,4.46
2019-03-20T02:53:59.354Z,4.49
2019-03-20T02:54:59.343Z,4.49
2019-03-20T02:55:59.344Z,4.51
2019-03-20T02:56:59.321Z,4.50
2019-03-20T02:57:59.318Z,4.50
2019-03-20T02:58:59.310Z,4.47
2019-03-20T02:59:59.293Z,4.50
2019-03-20T03:00:59.324Z,4.51
2019-03-20T03:01:59.270Z,4.50
2019-03-20T03:02:59.257Z,4.46
2019-03-20T03:03:59.249Z,4.46
2019-03-20T03:04:59.235Z,4.39
2019-03-20T03:06:06.566Z,4.46
2019-03-20T03:07:00.214Z,4.46
2019-03-20T03:07:59.204Z,4.42
2019-03-20T03:08:59.196Z,4.43
2019-03-20T03:09:59.184Z,4.49
2019-03-20T03:10:59.187Z,4.42
2019-03-20T03:11:59.160Z,4.43
2019-03-20T03:12:59.150Z,4.42
2019-03-20T03:13:59.141Z,4.36
2019-03-20T03:14:59.129Z,4.43
2019-03-20T03:15:59.129Z,4.46
2019-03-20T03:16:59.109Z,4.42
2019-03-20T03:17:59.096Z,4.46
2019-03-20T03:18:59.088Z,4.47
2019-03-20T03:19:59.075Z,4.51
2019-03-20T03:20:59.075Z,4.50
2019-03-20T03:21:59.059Z,4.51
2019-03-20T03:22:59.043Z,4.38
2019-03-20T03:23:59.033Z,4.38
2019-03-20T03:24:59.025Z,4.39
2019-03-20T03:25:59.026Z,4.39
2019-03-20T03:26:59.001Z,4.38
2019-03-20T03:27:58.991Z,4.39
2019-03-20T03:28:58.988Z,4.35
2019-03-20T03:29:58.970Z,4.35
2019-03-20T03:30:58.969Z,4.29
2019-03-20T03:31:58.947Z,4.28
2019-03-20T03:32:58.954Z,4.34
2019-03-20T03:33:58.930Z,4.28
2019-03-20T03:34:58.952Z,4.29
2019-03-20T03:35:58.922Z,4.26
2019-03-20T03:36:58.893Z,4.32
2019-03-20T03:37:58.889Z,4.34
2019-03-20T03:38:58.878Z,4.34
2019-03-20T03:39:58.862Z,4.32
2019-03-20T03:40:58.864Z,4.28
2019-03-20T03:41:58.847Z,4.32
2019-03-20T03:42:58.834Z,4.35
2019-03-20T03:43:58.821Z,4.31
2019-03-20T03:44:58.811Z,4.39
2019-03-20T03:45:58.811Z,4.26
2019-03-20T03:46:58.788Z,4.28
2019-03-20T03:47:58.781Z,4.32
2019-03-20T03:48:58.765Z,4.31
2019-03-20T03:49:58.757Z,4.34
2019-03-20T03:50:58.755Z,4.31
2019-03-20T03:51:58.733Z,4.34
2019-03-20T03:52:58.722Z,4.32
2019-03-20T03:53:58.715Z,4.29
2019-03-20T03:54:58.703Z,4.29
2019-03-20T03:55:58.709Z,4.31
2019-03-20T03:56:58.680Z,4.29
2019-03-20T03:57:58.671Z,4.29
2019-03-20T03:58:58.659Z,4.35
2019-03-20T03:59:58.651Z,4.20
2019-03-20T04:00:58.648Z,4.17
2019-03-20T04:01:58.628Z,4.20
2019-03-20T04:02:58.621Z,4.18
2019-03-20T04:03:58.607Z,4.26
2019-03-20T04:04:58.597Z,4.20
2019-03-20T04:05:58.594Z,4.17
2019-03-20T04:06:58.576Z,4.18
2019-03-20T04:07:58.563Z,4.11
2019-03-20T04:08:58.559Z,4.14
2019-03-20T04:09:58.553Z,3.99
2019-03-20T04:10:58.543Z,3.99
2019-03-20T04:11:58.522Z,3.98
2019-03-20T04:12:58.510Z,4.00
2019-03-20T04:13:58.499Z,3.93
2019-03-20T04:14:58.491Z,3.96
2019-03-20T04:15:58.496Z,3.98
2019-03-20T04:16:58.468Z,3.89
2019-03-20T04:17:58.461Z,3.92
2019-03-20T04:18:58.451Z,3.96
2019-03-20T04:19:58.438Z,3.81
2019-03-20T04:20:58.451Z,3.89
2019-03-20T04:21:58.415Z,3.81
2019-03-20T04:22:58.404Z,3.84
2019-03-20T04:23:58.395Z,3.81
2019-03-20T04:24:58.405Z,3.82
2019-03-20T04:25:58.370Z,3.77
2019-03-20T04:26:58.375Z,3.81
2019-03-20T04:27:58.350Z,3.71
2019-03-20T04:28:58.344Z,3.77
2019-03-20T04:29:58.382Z,3.75
2019-03-20T04:30:58.339Z,3.81
2019-03-20T04:31:58.321Z,3.70
2019-03-20T04:32:58.299Z,3.74
2019-03-20T04:33:58.291Z,3.75
2019-03-20T04:34:58.279Z,3.63
2019-03-20T04:35:58.269Z,3.62
2019-03-20T04:36:58.269Z,3.60
2019-03-20T04:37:58.274Z,3.70
2019-03-20T04:38:58.233Z,3.63
2019-03-20T04:39:58.222Z,3.68
2019-03-20T04:40:58.213Z,3.57
2019-03-20T04:41:58.221Z,3.62
2019-03-20T04:42:58.190Z,3.53
2019-03-20T04:43:58.181Z,3.60
2019-03-20T04:44:58.173Z,3.60
2019-03-20T04:45:58.162Z,3.57
2019-03-20T04:46:58.157Z,3.52
2019-03-20T04:47:58.137Z,3.53
2019-03-20T04:48:58.128Z,3.56
2019-03-20T04:49:58.115Z,3.53
2019-03-20T04:50:58.106Z,3.57
2019-03-20T04:51:58.107Z,3.52
2019-03-20T04:52:58.087Z,3.54
2019-03-20T04:53:58.073Z,3.57
2019-03-20T04:54:58.062Z,3.57
2019-03-20T04:55:58.053Z,3.52
2019-03-20T04:56:58.053Z,3.53
2019-03-20T04:57:58.032Z,3.64
2019-03-20T04:58:58.022Z,3.63
2019-03-20T04:59:58.009Z,3.59
2019-03-20T05:00:58.001Z,3.63
2019-03-20T05:01:58.000Z,3.64
2019-03-20T05:02:57.979Z,3.57
2019-03-20T05:03:57.968Z,3.56
2019-03-20T05:04:57.957Z,3.54
2019-03-20T05:05:57.945Z,3.62
2019-03-20T05:06:59.294Z,3.54
2019-03-20T05:07:57.925Z,3.62
2019-03-20T05:08:57.914Z,3.59
2019-03-20T05:09:57.904Z,3.56
2019-03-20T05:10:57.895Z,3.57
2019-03-20T05:11:57.900Z,3.59
2019-03-20T05:12:57.871Z,3.59
2019-03-20T05:13:57.861Z,3.62
2019-03-20T05:14:57.852Z,3.57
2019-03-20T05:15:57.841Z,3.62
2019-03-20T05:16:57.839Z,3.62
2019-03-20T05:17:57.822Z,3.59
2019-03-20T05:18:57.810Z,3.60
2019-03-20T05:19:57.801Z,3.59
2019-03-20T05:20:57.789Z,3.62
2019-03-20T05:21:57.802Z,3.57
2019-03-20T05:22:57.772Z,3.64
2019-03-20T05:23:57.755Z,3.62
2019-03-20T05:24:57.751Z,3.59
2019-03-20T05:25:57.740Z,3.63
2019-03-20T05:26:57.723Z,3.59
2019-03-20T05:27:57.731Z,3.64
2019-03-20T05:28:57.703Z,3.67
2019-03-20T05:29:57.691Z,3.67
2019-03-20T05:30:57.681Z,3.63
2019-03-20T05:31:57.670Z,3.64
2019-03-20T05:32:57.668Z,3.64
2019-03-20T05:33:57.650Z,3.68
2019-03-20T05:34:57.637Z,3.77
2019-03-20T05:35:57.630Z,3.80
2019-03-20T05:37:10.643Z,3.71
2019-03-20T05:37:57.607Z,3.71
2019-03-20T05:38:57.599Z,3.78
2019-03-20T05:39:57.591Z,3.77
2019-03-20T05:40:57.576Z,3.86
2019-03-20T05:41:57.562Z,3.88
2019-03-20T05:42:57.562Z,3.82
2019-03-20T05:43:57.545Z,3.84
2019-03-20T05:44:57.530Z,3.93
2019-03-20T05:45:57.522Z,3.99
2019-03-20T05:46:57.523Z,3.96
2019-03-20T05:47:57.510Z,4.08
2019-03-20T05:48:57.490Z,3.98
2019-03-20T05:49:57.479Z,4.08
2019-03-20T05:50:57.470Z,4.14
2019-03-20T05:51:57.464Z,4.16
2019-03-20T05:52:57.458Z,4.18
2019-03-20T05:53:57.442Z,4.18
2019-03-20T05:54:57.426Z,4.18
2019-03-20T05:55:57.415Z,4.31
2019-03-20T05:56:57.404Z,4.34
2019-03-20T05:57:57.401Z,4.31
2019-03-20T05:58:57.392Z,4.36
2019-03-20T05:59:57.373Z,4.26
2019-03-20T06:00:57.362Z,4.36
2019-03-20T06:01:57.350Z,4.35
2019-03-20T06:02:57.353Z,4.39
2019-03-20T06:03:57.329Z,4.47
2019-03-20T06:04:57.324Z,4.46
2019-03-20T06:05:57.309Z,4.49
2019-03-20T06:06:57.295Z,4.61
2019-03-20T06:07:57.303Z,4.71
2019-03-20T06:08:57.275Z,4.59
2019-03-20T06:09:57.269Z,4.69
2019-03-20T06:10:57.254Z,4.74
2019-03-20T06:11:57.243Z,4.75
2019-03-20T06:12:57.246Z,4.91
2019-03-20T06:13:57.222Z,4.94
2019-03-20T06:14:57.214Z,4.94
2019-03-20T06:15:57.202Z,5.04
2019-03-20T06:16:57.193Z,5.05
2019-03-20T06:17:57.192Z,5.14
2019-03-20T06:18:57.168Z,5.29
2019-03-20T06:19:57.159Z,5.29
2019-03-20T06:20:57.156Z,5.32
2019-03-20T06:21:57.138Z,5.42
2019-03-20T06:22:57.136Z,5.40
2019-03-20T06:23:57.117Z,5.49
2019-03-20T06:24:57.109Z,5.58
2019-03-20T06:25:57.098Z,5.66
2019-03-20T06:26:57.084Z,5.70
2019-03-20T06:27:57.084Z,5.74
2019-03-20T06:28:57.064Z,5.88
2019-03-20T06:29:57.051Z,5.88
2019-03-20T06:30:57.041Z,5.95
2019-03-20T06:31:57.030Z,6.01
2019-03-20T06:32:57.053Z,6.02
2019-03-20T06:33:57.013Z,6.06
2019-03-20T06:34:57.003Z,6.17
2019-03-20T06:35:56.992Z,6.25
2019-03-20T06:36:56.978Z,6.35
2019-03-20T06:37:56.967Z,6.39
2019-03-20T06:38:56.972Z,6.35
2019-03-20T06:39:56.945Z,6.57
2019-03-20T06:40:56.940Z,6.53
2019-03-20T06:41:56.924Z,6.65
2019-03-20T06:42:56.914Z,6.72
2019-03-20T06:43:56.918Z,6.76
2019-03-20T06:44:56.895Z,6.82
2019-03-20T06:45:56.882Z,6.99
2019-03-20T06:46:56.884Z,7.00
2019-03-20T06:47:56.864Z,7.08
2019-03-20T06:48:56.861Z,7.04
2019-03-20T06:49:56.838Z,7.16
2019-03-20T06:50:56.828Z,7.15
2019-03-20T06:51:56.820Z,7.30
2019-03-20T06:52:56.807Z,7.30
2019-03-20T06:53:56.805Z,7.36
2019-03-20T06:54:56.783Z,7.45
2019-03-20T06:55:56.782Z,7.55
2019-03-20T06:56:56.765Z,7.66
2019-03-20T06:57:56.752Z,7.66
2019-03-20T06:58:56.751Z,7.71
2019-03-20T06:59:56.732Z,7.79
2019-03-20T07:00:56.722Z,7.91
2019-03-20T07:01:56.712Z,7.92
2019-03-20T07:02:56.704Z,8.07
2019-03-20T07:03:56.749Z,8.09
2019-03-20T07:04:56.677Z,8.22
2019-03-20T07:05:56.681Z,8.21
2019-03-20T07:06:57.379Z,8.39
2019-03-20T07:07:56.650Z,8.39
2019-03-20T07:08:56.645Z,8.45
2019-03-20T07:09:56.624Z,8.57
2019-03-20T07:10:56.613Z,8.63
2019-03-20T07:11:56.601Z,8.73
2019-03-20T07:12:56.595Z,8.73
2019-03-20T07:13:56.593Z,8.86
2019-03-20T07:14:56.574Z,8.91
2019-03-20T07:15:56.559Z,9.04
2019-03-20T07:16:56.550Z,9.08
2019-03-20T07:17:56.541Z,9.16
2019-03-20T07:18:56.536Z,9.30
2019-03-20T07:19:56.518Z,9.42
2019-03-20T07:20:56.504Z,9.56
2019-03-20T07:21:56.495Z,9.60
2019-03-20T07:22:56.487Z,9.75
2019-03-20T07:23:56.482Z,9.86
2019-03-20T07:24:56.462Z,10.02
2019-03-20T07:25:56.452Z,10.04
2019-03-20T07:26:56.443Z,10.16
2019-03-20T07:27:56.439Z,10.28
2019-03-20T07:28:56.429Z,10.46
2019-03-20T07:29:57.384Z,10.57
2019-03-20T07:30:56.479Z,10.69
2019-03-20T07:31:56.387Z,10.93
2019-03-20T07:32:56.379Z,11.09
2019-03-20T07:33:56.376Z,11.33
2019-03-20T07:34:56.353Z,11.66
2019-03-20T07:35:56.343Z,12.04
2019-03-20T07:36:56.334Z,12.46
2019-03-20T07:37:56.569Z,12.94
2019-03-20T07:38:56.327Z,13.31
2019-03-20T07:39:56.311Z,13.90
2019-03-20T07:40:56.290Z,14.46
2019-03-20T07:41:56.278Z,14.98
2019-03-20T07:42:56.278Z,15.58
2019-03-20T07:43:56.276Z,15.96
2019-03-20T07:44:56.249Z,16.36
2019-03-20T07:45:56.235Z,16.72
2019-03-20T07:46:56.242Z,17.10
2019-03-20T07:47:56.215Z,17.35
2019-03-20T07:48:56.216Z,17.71
2019-03-20T07:49:56.194Z,17.96
2019-03-20T07:50:56.184Z,18.20
2019-03-20T07:51:56.173Z,18.47
2019-03-20T07:52:56.160Z,18.62
2019-03-20T07:53:56.162Z,18.90
2019-03-20T07:54:56.141Z,19.13
2019-03-20T07:55:56.129Z,19.35
2019-03-20T07:56:56.121Z,19.62
2019-03-20T07:57:56.108Z,19.71
2019-03-20T07:58:56.129Z,20.01
2019-03-20T07:59:56.091Z,20.37
2019-03-20T08:00:56.078Z,20.64
2019-03-20T08:01:56.067Z,20.79
2019-03-20T08:02:56.060Z,20.93
2019-03-20T08:03:56.056Z,21.11
2019-03-20T08:04:56.048Z,21.36
2019-03-20T08:05:56.028Z,21.59
2019-03-20T08:06:56.016Z,21.91
2019-03-20T08:08:06.436Z,22.11
2019-03-20T08:08:56.995Z,22.29
2019-03-20T08:09:56.420Z,22.51
2019-03-20T08:10:55.975Z,22.61
2019-03-20T08:11:55.965Z,22.76
2019-03-20T08:12:55.961Z,23.11
2019-03-20T08:13:55.943Z,23.29
2019-03-20T08:14:55.947Z,23.67
2019-03-20T08:15:55.927Z,23.93
2019-03-20T08:16:55.915Z,24.04
2019-03-20T08:17:55.904Z,24.14
2019-03-20T08:18:55.894Z,24.29
2019-03-20T08:19:55.933Z,24.46
2019-03-20T08:20:55.873Z,24.60
2019-03-20T08:21:55.862Z,24.71
2019-03-20T08:22:55.852Z,24.82
2019-03-20T08:23:55.842Z,25.01
2019-03-20T08:24:55.934Z,24.80
2019-03-20T08:25:55.821Z,24.77
2019-03-20T08:26:55.814Z,24.48
2019-03-20T08:27:55.804Z,23.96
2019-03-20T08:28:55.796Z,23.41
2019-03-20T08:29:55.793Z,22.94
2019-03-20T08:30:55.818Z,22.51
2019-03-20T08:31:55.765Z,22.35
2019-03-20T08:32:55.755Z,22.57
2019-03-20T08:33:55.818Z,22.99
2019-03-20T08:34:55.741Z,23.67
2019-03-20T08:35:55.738Z,24.31
2019-03-20T08:36:55.735Z,24.90
2019-03-20T08:37:55.716Z,25.36
2019-03-20T08:38:55.691Z,25.74
2019-03-20T08:39:55.690Z,25.78
2019-03-20T08:40:55.742Z,26.11
2019-03-20T08:41:55.698Z,26.41
2019-03-20T08:42:55.677Z,26.66
2019-03-20T08:43:55.648Z,26.65
2019-03-20T08:44:55.805Z,26.53
2019-03-20T08:45:56.421Z,26.56
2019-03-20T08:46:55.622Z,26.87
2019-03-20T08:47:55.624Z,27.03
2019-03-20T08:48:55.598Z,27.20
2019-03-20T08:49:55.593Z,27.27
2019-03-20T08:50:55.614Z,27.48
2019-03-20T08:51:55.562Z,27.49
2019-03-20T08:52:55.552Z,27.69
2019-03-20T08:53:56.359Z,27.86
2019-03-20T08:54:55.592Z,27.96
2019-03-20T08:55:55.524Z,28.03
2019-03-20T08:56:55.512Z,27.78
2019-03-20T08:57:55.503Z,27.81
2019-03-20T08:58:55.509Z,27.93
2019-03-20T08:59:55.500Z,28.05
2019-03-20T09:00:55.481Z,28.14
2019-03-20T09:01:55.470Z,28.05
2019-03-20T09:02:55.458Z,28.06
2019-03-20T09:03:55.451Z,28.14
2019-03-20T09:04:55.446Z,28.21
2019-03-20T09:05:55.428Z,28.30
2019-03-20T09:06:55.415Z,28.48
2019-03-20T09:07:55.407Z,28.55
2019-03-20T09:08:55.396Z,28.48
2019-03-20T09:09:55.396Z,28.65
2019-03-20T09:10:55.376Z,28.43
2019-03-20T09:11:55.375Z,28.36
2019-03-20T09:12:55.356Z,28.33
2019-03-20T09:13:55.351Z,28.36
2019-03-20T09:14:55.520Z,28.40
2019-03-20T09:15:55.329Z,28.62
2019-03-20T09:16:55.320Z,28.83
2019-03-20T09:17:55.310Z,28.89
2019-03-20T09:18:55.300Z,29.05
2019-03-20T09:19:55.294Z,29.29
2019-03-20T09:20:55.285Z,29.41
2019-03-20T09:21:55.268Z,29.41
2019-03-20T09:22:55.265Z,29.44
2019-03-20T09:23:55.247Z,29.39
2019-03-20T09:24:55.236Z,29.58
2019-03-20T09:25:55.238Z,29.64
2019-03-20T09:26:55.218Z,29.69
2019-03-20T09:27:55.206Z,29.91
2019-03-20T09:28:55.197Z,29.91
2019-03-20T09:29:55.192Z,30.00
2019-03-20T09:30:55.185Z,29.84
2019-03-20T09:31:55.168Z,29.79
2019-03-20T09:32:55.161Z,29.89
2019-03-20T09:33:55.283Z,29.76
2019-03-20T09:34:55.150Z,29.57
2019-03-20T09:35:55.143Z,29.45
2019-03-20T09:36:55.117Z,29.42
2019-03-20T09:37:55.113Z,29.42
2019-03-20T09:38:55.096Z,29.30
2019-03-20T09:39:55.088Z,29.21
2019-03-20T09:40:55.086Z,29.17
2019-03-20T09:41:55.070Z,29.20
2019-03-20T09:42:55.060Z,29.26
2019-03-20T09:43:55.051Z,29.12
2019-03-20T09:44:55.032Z,28.95
2019-03-20T09:45:56.926Z,28.79
2019-03-20T09:46:55.019Z,28.91
2019-03-20T09:47:55.007Z,28.69
2019-03-20T09:48:54.994Z,28.72
2019-03-20T09:49:54.983Z,28.58
2019-03-20T09:50:54.987Z,28.48
2019-03-20T09:51:54.962Z,28.14
2019-03-20T09:52:54.954Z,28.06
2019-03-20T09:53:54.947Z,27.77
2019-03-20T09:54:54.957Z,27.40
2019-03-20T09:55:54.930Z,27.33
2019-03-20T09:56:54.910Z,27.11
2019-03-20T09:57:54.902Z,26.97
2019-03-20T09:58:54.895Z,26.83
2019-03-20T09:59:54.880Z,26.69
2019-03-20T10:00:54.880Z,26.56
2019-03-20T10:01:54.869Z,26.41
2019-03-20T10:02:54.851Z,26.03
2019-03-20T10:03:54.841Z,25.74
2019-03-20T10:04:54.833Z,25.48
2019-03-20T10:05:54.829Z,25.07
2019-03-20T10:06:54.812Z,24.83
2019-03-20T10:07:54.804Z,24.63
2019-03-20T10:08:54.785Z,24.23
2019-03-20T10:09:54.778Z,23.90
2019-03-20T10:10:54.825Z,23.53
2019-03-20T10:11:54.757Z,23.23
2019-03-20T10:12:54.746Z,22.79
2019-03-20T10:13:54.733Z,22.48
2019-03-20T10:14:54.721Z,22.26
2019-03-20T10:15:54.712Z,21.79
2019-03-20T10:16:54.715Z,21.64
2019-03-20T10:17:54.697Z,21.28
2019-03-20T10:18:54.680Z,21.03
2019-03-20T10:19:54.671Z,20.88
2019-03-20T10:20:54.678Z,20.85
2019-03-20T10:21:54.668Z,20.69
2019-03-20T10:22:54.638Z,20.42
2019-03-20T10:23:54.630Z,20.41
2019-03-20T10:24:54.615Z,20.26
2019-03-20T10:25:54.605Z,20.26
2019-03-20T10:26:54.603Z,20.26
2019-03-20T10:27:54.583Z,20.33
2019-03-20T10:28:54.575Z,20.27
2019-03-20T10:29:54.562Z,20.34
2019-03-20T10:30:54.550Z,20.33
2019-03-20T10:31:54.551Z,20.34
2019-03-20T10:32:54.528Z,20.26
2019-03-20T10:33:54.524Z,19.95
2019-03-20T10:34:54.508Z,19.87
2019-03-20T10:35:54.499Z,19.67
2019-03-20T10:36:54.500Z,19.65
2019-03-20T10:37:54.479Z,19.64
2019-03-20T10:39:05.774Z,19.61
2019-03-20T10:39:55.466Z,19.43
2019-03-20T10:40:54.444Z,19.45
2019-03-20T10:41:54.457Z,19.40
2019-03-20T10:42:54.426Z,19.17
2019-03-20T10:43:54.411Z,19.07
2019-03-20T10:44:54.406Z,19.13
2019-03-20T10:45:54.395Z,19.02
2019-03-20T10:46:54.388Z,19.05
2019-03-20T10:47:54.377Z,19.09
2019-03-20T10:48:56.354Z,19.02
2019-03-20T10:49:54.348Z,19.05
2019-03-20T10:50:54.343Z,18.76
2019-03-20T10:51:54.342Z,18.93
2019-03-20T10:52:54.322Z,18.97
2019-03-20T10:53:54.305Z,18.97
2019-03-20T10:54:54.295Z,19.02
2019-03-20T10:55:54.286Z,19.13
2019-03-20T10:56:54.284Z,19.07
2019-03-20T10:57:54.264Z,18.94
2019-03-20T10:58:54.262Z,18.93
2019-03-20T10:59:54.241Z,18.86
2019-03-20T11:00:54.232Z,18.78
2019-03-20T11:01:54.230Z,18.86
2019-03-20T11:02:54.219Z,18.79
2019-03-20T11:03:54.200Z,18.78
2019-03-20T11:04:54.196Z,18.82
2019-03-20T11:05:54.179Z,18.75
2019-03-20T11:06:54.189Z,18.69
2019-03-20T11:07:54.156Z,18.66
2019-03-20T11:08:54.148Z,18.69
2019-03-20T11:09:54.134Z,18.56
2019-03-20T11:10:54.125Z,18.49
2019-03-20T11:11:54.125Z,18.64
2019-03-20T11:12:54.108Z,18.62
2019-03-20T11:13:54.091Z,18.46
2019-03-20T11:14:54.081Z,18.49
2019-03-20T11:15:54.068Z,18.36
2019-03-20T11:16:54.068Z,18.23
2019-03-20T11:17:54.046Z,18.11
2019-03-20T11:18:54.057Z,18.04
2019-03-20T11:19:56.220Z,17.98
2019-03-20T11:20:54.015Z,17.83
2019-03-20T11:21:54.015Z,17.92
2019-03-20T11:22:53.993Z,17.95
2019-03-20T11:23:53.983Z,17.84
2019-03-20T11:24:53.973Z,17.84
2019-03-20T11:25:53.960Z,17.81
2019-03-20T11:26:53.952Z,17.86
2019-03-20T11:27:53.953Z,17.79
2019-03-20T11:28:53.939Z,17.86
2019-03-20T11:29:53.919Z,17.73
2019-03-20T11:30:53.909Z,17.54
2019-03-20T11:31:53.895Z,17.46
2019-03-20T11:32:53.896Z,17.47
2019-03-20T11:33:53.879Z,17.36
2019-03-20T11:34:53.865Z,17.63
2019-03-20T11:35:53.852Z,17.73
2019-03-20T11:36:53.843Z,17.83
2019-03-20T11:37:53.844Z,17.87
2019-03-20T11:38:53.820Z,17.83
2019-03-20T11:39:53.810Z,17.86
2019-03-20T11:40:53.799Z,17.71
2019-03-20T11:41:53.841Z,17.91
2019-03-20T11:42:53.793Z,17.98
2019-03-20T11:43:53.765Z,18.09
2019-03-20T11:44:53.756Z,18.05
2019-03-20T11:45:53.747Z,18.09
2019-03-20T11:46:53.733Z,17.83
2019-03-20T11:47:53.734Z,17.74
2019-03-20T11:48:53.713Z,17.51
2019-03-20T11:49:53.703Z,17.40
2019-03-20T11:50:53.697Z,17.38
2019-03-20T11:51:53.687Z,17.46
2019-03-20T11:52:53.684Z,17.71
2019-03-20T11:53:53.676Z,17.89
2019-03-20T11:54:53.666Z,17.95
2019-03-20T11:55:53.640Z,17.95
2019-03-20T11:56:53.626Z,17.77
2019-03-20T11:57:53.681Z,17.74
2019-03-20T11:58:53.627Z,17.54
2019-03-20T11:59:53.597Z,17.68
2019-03-20T12:00:53.601Z,17.71
2019-03-20T12:01:53.578Z,17.58
2019-03-20T12:02:53.574Z,17.42
2019-03-20T12:03:53.550Z,17.38
2019-03-20T12:04:54.080Z,17.32
2019-03-20T12:05:53.531Z,17.18
2019-03-20T12:06:53.522Z,17.17
2019-03-20T12:07:53.518Z,17.12
2019-03-20T12:08:53.496Z,17.14
2019-03-20T12:09:53.486Z,17.21
2019-03-20T12:10:53.479Z,17.02
2019-03-20T12:11:53.466Z,16.85
2019-03-20T12:12:53.503Z,16.92
2019-03-20T12:13:53.441Z,16.85
2019-03-20T12:14:53.430Z,16.96
2019-03-20T12:15:53.427Z,16.85
2019-03-20T12:16:53.411Z,16.88
2019-03-20T12:17:53.409Z,16.85
2019-03-20T12:18:53.389Z,16.95
2019-03-20T12:19:53.378Z,17.07
2019-03-20T12:20:53.368Z,17.12
2019-03-20T12:21:53.361Z,17.18
2019-03-20T12:22:53.356Z,17.09
2019-03-20T12:23:53.335Z,17.05
2019-03-20T12:24:53.323Z,16.88
2019-03-20T12:25:53.320Z,16.95
2019-03-20T12:26:53.303Z,16.92
2019-03-20T12:27:53.304Z,16.84
2019-03-20T12:28:53.286Z,16.75
2019-03-20T12:29:53.270Z,16.73
2019-03-20T12:30:53.259Z,16.73
2019-03-20T12:31:53.250Z,16.80
2019-03-20T12:32:53.251Z,16.81
2019-03-20T12:33:53.252Z,16.85
2019-03-20T12:34:53.217Z,16.80
2019-03-20T12:35:53.209Z,16.82
2019-03-20T12:36:53.231Z,16.73
2019-03-20T12:37:53.222Z,16.65
2019-03-20T12:38:53.173Z,16.70
2019-03-20T12:39:53.694Z,16.66
2019-03-20T12:40:53.152Z,16.48
2019-03-20T12:41:53.151Z,16.52
2019-03-20T12:42:53.131Z,16.60
2019-03-20T12:43:53.132Z,16.69
2019-03-20T12:44:53.109Z,16.75
2019-03-20T12:45:53.098Z,16.72
2019-03-20T12:46:53.089Z,16.84
2019-03-20T12:47:53.076Z,16.90
2019-03-20T12:48:53.078Z,16.98
2019-03-20T12:49:53.062Z,16.90
2019-03-20T12:50:53.057Z,16.95
2019-03-20T12:51:53.036Z,16.92
2019-03-20T12:52:53.022Z,16.96
2019-03-20T12:53:53.051Z,16.96
2019-03-20T12:54:53.003Z,17.02
2019-03-20T12:55:52.991Z,16.96
2019-03-20T12:56:52.988Z,17.12
2019-03-20T12:57:52.967Z,17.03
2019-03-20T12:58:52.966Z,17.07
2019-03-20T12:59:52.948Z,17.15
2019-03-20T13:00:54.551Z,17.15
2019-03-20T13:01:52.928Z,17.09
2019-03-20T13:02:52.916Z,16.99
2019-03-20T13:03:52.917Z,16.99
2019-03-20T13:04:52.907Z,16.99
2019-03-20T13:05:52.885Z,16.95
2019-03-20T13:06:52.871Z,16.98
2019-03-20T13:07:52.868Z,16.98